TAR338 DTTA-LEPA
Flight info
| Callsign | TAR338 |
|---|---|
| Flight time | N/A |
| Altitude | 36000 |
| Route | KEMIR3C KEMIR DCT KAMER DCT MORSS |
| Aircraft | A320/M-SDE3FGHIRWY/LB1 |
Departure
| Time | 2026-04-29 20:10 |
|---|---|
| Airport | Tunis Carthage International Airport (DTTA) |
Arrival
| Time | N/A |
|---|---|
| Airport | Palma de Mallorca Airport (LEPA) |
| Time | Latitude | Longitude | Altitude | Speed | Heading |
|---|---|---|---|---|---|
| 2026-04-29 19:37 | 36.84661 | 10.21959 | 31 ft | 0 kts | 198° |
| 2026-04-29 19:54 | 36.84678 | 10.21966 | 30 ft | 4 kts | 194° |
| 2026-04-29 19:55 | 36.84704 | 10.21972 | 30 ft | 4 kts | 182° |
| 2026-04-29 19:55 | 36.84729 | 10.21968 | 30 ft | 4 kts | 145° |
| 2026-04-29 19:55 | 36.84738 | 10.21956 | 30 ft | 0 kts | 103° |
| 2026-04-29 20:03 | 36.84734 | 10.21991 | 30 ft | 9 kts | 90° |
| 2026-04-29 20:03 | 36.84793 | 10.22027 | 30 ft | 11 kts | 13° |
| 2026-04-29 20:03 | 36.84852 | 10.22038 | 30 ft | 10 kts | 13° |
| 2026-04-29 20:04 | 36.84858 | 10.22040 | 30 ft | 9 kts | 17° |
| 2026-04-29 20:04 | 36.84898 | 10.22120 | 30 ft | 14 kts | 92° |
| 2026-04-29 20:04 | 36.84881 | 10.22245 | 30 ft | 16 kts | 103° |
| 2026-04-29 20:04 | 36.84873 | 10.22287 | 30 ft | 0 kts | 103° |
| 2026-04-29 20:05 | 36.84870 | 10.22302 | 30 ft | 5 kts | 103° |
| 2026-04-29 20:05 | 36.84890 | 10.22354 | 31 ft | 10 kts | 34° |
| 2026-04-29 20:05 | 36.84966 | 10.22384 | 31 ft | 11 kts | 4° |
| 2026-04-29 20:05 | 36.85013 | 10.22329 | 31 ft | 11 kts | 297° |
| 2026-04-29 20:06 | 36.85060 | 10.22202 | 31 ft | 21 kts | 292° |
| 2026-04-29 20:06 | 36.85119 | 10.22025 | 30 ft | 23 kts | 292° |
| 2026-04-29 20:06 | 36.85183 | 10.21829 | 30 ft | 26 kts | 292° |
| 2026-04-29 20:06 | 36.85310 | 10.21721 | 30 ft | 25 kts | 21° |
| 2026-04-29 20:07 | 36.85412 | 10.21811 | 32 ft | 3 kts | 100° |
| 2026-04-29 20:07 | 36.85411 | 10.21812 | 32 ft | 0 kts | 105° |
| 2026-04-29 20:09 | 36.85411 | 10.21813 | 32 ft | 2 kts | 105° |
| 2026-04-29 20:09 | 36.85362 | 10.21974 | 32 ft | 49 kts | 113° |
| 2026-04-29 20:09 | 36.85127 | 10.22665 | 34 ft | 120 kts | 112° |
| 2026-04-29 20:09 | 36.84730 | 10.23834 | 132 ft | 163 kts | 114° |
| 2026-04-29 20:10 | 36.84257 | 10.25146 | 853 ft | 165 kts | 123° |
| 2026-04-29 20:10 | 36.83384 | 10.25981 | 1652 ft | 160 kts | 168° |
| 2026-04-29 20:10 | 36.82268 | 10.25928 | 2183 ft | 171 kts | 204° |
| 2026-04-29 20:10 | 36.81342 | 10.24907 | 2540 ft | 192 kts | 244° |
| 2026-04-29 20:11 | 36.81237 | 10.23210 | 2999 ft | 211 kts | 289° |
| 2026-04-29 20:11 | 36.82199 | 10.21812 | 3765 ft | 223 kts | 330° |
| 2026-04-29 20:11 | 36.83737 | 10.21534 | 4587 ft | 233 kts | 8° |
| 2026-04-29 20:11 | 36.85333 | 10.21972 | 5438 ft | 236 kts | 3° |
| 2026-04-29 20:12 | 36.86978 | 10.21553 | 5865 ft | 254 kts | 326° |
| 2026-04-29 20:12 | 36.88151 | 10.19873 | 6454 ft | 266 kts | 290° |
| 2026-04-29 20:12 | 36.88317 | 10.17575 | 7229 ft | 273 kts | 256° |
| 2026-04-29 20:12 | 36.87414 | 10.15531 | 8138 ft | 278 kts | 228° |
| 2026-04-29 20:13 | 36.86051 | 10.13804 | 9069 ft | 280 kts | 229° |
| 2026-04-29 20:13 | 36.85258 | 10.12486 | 9700 ft | 282 kts | 241° |
| 2026-04-29 20:13 | 36.84468 | 10.09369 | 10509 ft | 300 kts | 266° |
| 2026-04-29 20:13 | 36.84432 | 10.06680 | 10977 ft | 316 kts | 269° |
| 2026-04-29 20:14 | 36.84417 | 10.03911 | 11744 ft | 321 kts | 269° |
| 2026-04-29 20:14 | 36.84404 | 10.01098 | 12579 ft | 325 kts | 269° |
| 2026-04-29 20:14 | 36.84389 | 9.98260 | 13410 ft | 328 kts | 269° |
| 2026-04-29 20:14 | 36.84369 | 9.95389 | 14185 ft | 332 kts | 269° |
| 2026-04-29 20:15 | 36.84343 | 9.92501 | 14912 ft | 335 kts | 269° |
| 2026-04-29 20:15 | 36.84315 | 9.89580 | 15642 ft | 338 kts | 269° |
| 2026-04-29 20:15 | 36.84284 | 9.86637 | 16363 ft | 341 kts | 269° |
| 2026-04-29 20:15 | 36.84253 | 9.83662 | 17079 ft | 344 kts | 269° |
| 2026-04-29 20:16 | 36.84222 | 9.80705 | 17811 ft | 346 kts | 269° |
| 2026-04-29 20:16 | 36.84191 | 9.77696 | 18507 ft | 348 kts | 269° |
| 2026-04-29 20:16 | 36.84160 | 9.74668 | 19119 ft | 351 kts | 269° |
| 2026-04-29 20:16 | 36.84127 | 9.71613 | 19745 ft | 353 kts | 269° |
| 2026-04-29 20:17 | 36.84092 | 9.68535 | 20365 ft | 356 kts | 268° |
| 2026-04-29 20:17 | 36.84054 | 9.65419 | 21010 ft | 358 kts | 268° |
| 2026-04-29 20:17 | 36.84014 | 9.62310 | 21674 ft | 360 kts | 268° |
| 2026-04-29 20:17 | 36.83973 | 9.59169 | 22315 ft | 362 kts | 268° |
| 2026-04-29 20:18 | 36.83932 | 9.56000 | 22949 ft | 365 kts | 268° |
| 2026-04-29 20:18 | 36.83892 | 9.52823 | 23579 ft | 367 kts | 268° |
| 2026-04-29 20:18 | 36.83854 | 9.49643 | 24082 ft | 369 kts | 268° |
| 2026-04-29 20:18 | 36.83871 | 9.46425 | 24599 ft | 371 kts | 274° |
| 2026-04-29 20:19 | 36.84344 | 9.43232 | 25069 ft | 377 kts | 285° |
| 2026-04-29 20:19 | 36.85361 | 9.40196 | 25543 ft | 383 kts | 296° |
| 2026-04-29 20:19 | 36.86871 | 9.37484 | 25997 ft | 390 kts | 307° |
| 2026-04-29 20:19 | 36.88669 | 9.34867 | 26461 ft | 392 kts | 307° |
| 2026-04-29 20:20 | 36.90422 | 9.32312 | 26902 ft | 394 kts | 307° |
| 2026-04-29 20:20 | 36.92216 | 9.29688 | 27351 ft | 396 kts | 306° |
| 2026-04-29 20:20 | 36.94009 | 9.27049 | 27765 ft | 398 kts | 306° |
| 2026-04-29 20:20 | 36.95803 | 9.24400 | 28201 ft | 400 kts | 306° |
| 2026-04-29 20:21 | 36.97600 | 9.21744 | 28627 ft | 402 kts | 306° |
| 2026-04-29 20:21 | 36.99422 | 9.19053 | 29048 ft | 404 kts | 306° |
| 2026-04-29 20:21 | 37.01243 | 9.16363 | 29450 ft | 406 kts | 306° |
| 2026-04-29 20:21 | 37.03085 | 9.13644 | 29842 ft | 408 kts | 306° |
| 2026-04-29 20:22 | 37.04898 | 9.10964 | 30188 ft | 411 kts | 306° |
| 2026-04-29 20:22 | 37.06770 | 9.08194 | 30511 ft | 413 kts | 306° |
| 2026-04-29 20:22 | 37.08633 | 9.05436 | 30796 ft | 415 kts | 306° |
| 2026-04-29 20:22 | 37.10480 | 9.02697 | 31090 ft | 417 kts | 306° |
| 2026-04-29 20:23 | 37.12352 | 8.99919 | 31382 ft | 419 kts | 306° |
| 2026-04-29 20:23 | 37.14231 | 8.97124 | 31700 ft | 420 kts | 306° |
| 2026-04-29 20:23 | 37.16118 | 8.94316 | 32065 ft | 420 kts | 306° |
| 2026-04-29 20:23 | 37.18002 | 8.91514 | 32459 ft | 419 kts | 306° |
| 2026-04-29 20:24 | 37.19880 | 8.88721 | 32844 ft | 418 kts | 305° |
| 2026-04-29 20:24 | 37.21116 | 8.86883 | 33120 ft | 417 kts | 305° |
| 2026-04-29 20:24 | 37.22978 | 8.84109 | 33531 ft | 416 kts | 305° |
| 2026-04-29 20:24 | 37.25446 | 8.80433 | 34070 ft | 414 kts | 305° |
| 2026-04-29 20:25 | 37.27297 | 8.77671 | 34417 ft | 412 kts | 305° |
| 2026-04-29 20:25 | 37.29133 | 8.74925 | 34761 ft | 411 kts | 305° |
| 2026-04-29 20:25 | 37.30968 | 8.72178 | 35087 ft | 409 kts | 305° |
| 2026-04-29 20:25 | 37.32794 | 8.69438 | 35432 ft | 407 kts | 305° |
| 2026-04-29 20:26 | 37.34021 | 8.67597 | 35660 ft | 406 kts | 305° |
| 2026-04-29 20:26 | 37.35830 | 8.64880 | 35913 ft | 405 kts | 305° |
| 2026-04-29 20:26 | 37.39389 | 8.59553 | 35954 ft | 396 kts | 305° |
| 2026-04-29 20:27 | 37.42342 | 8.55118 | 35945 ft | 394 kts | 305° |
| 2026-04-29 20:27 | 37.46436 | 8.48950 | 35942 ft | 394 kts | 304° |
| 2026-04-29 20:28 | 37.49947 | 8.43648 | 35942 ft | 394 kts | 304° |
| 2026-04-29 20:28 | 37.53471 | 8.38323 | 35946 ft | 394 kts | 304° |
| 2026-04-29 20:29 | 37.56989 | 8.33001 | 35952 ft | 395 kts | 305° |
| 2026-04-29 20:29 | 37.60502 | 8.27679 | 35956 ft | 395 kts | 305° |
| 2026-04-29 20:30 | 37.64011 | 8.22350 | 35959 ft | 394 kts | 305° |
| 2026-04-29 20:30 | 37.67506 | 8.17034 | 35975 ft | 394 kts | 305° |
| 2026-04-29 20:31 | 37.70998 | 8.11708 | 35966 ft | 394 kts | 305° |
| 2026-04-29 20:31 | 37.74479 | 8.06398 | 35960 ft | 394 kts | 305° |
| 2026-04-29 20:32 | 37.77967 | 8.01065 | 35966 ft | 394 kts | 305° |
| 2026-04-29 20:32 | 37.81465 | 7.95715 | 35959 ft | 394 kts | 305° |
| 2026-04-29 20:33 | 37.84949 | 7.90380 | 35957 ft | 394 kts | 305° |
| 2026-04-29 20:33 | 37.88437 | 7.85014 | 35957 ft | 394 kts | 305° |
| 2026-04-29 20:34 | 37.91900 | 7.79695 | 35957 ft | 393 kts | 305° |
| 2026-04-29 20:34 | 37.95375 | 7.74341 | 35976 ft | 393 kts | 305° |
| 2026-04-29 20:35 | 37.98845 | 7.68983 | 35967 ft | 393 kts | 305° |
| 2026-04-29 20:35 | 38.02315 | 7.63617 | 35959 ft | 393 kts | 305° |
| 2026-04-29 20:36 | 38.05787 | 7.58242 | 35953 ft | 393 kts | 306° |
| 2026-04-29 20:36 | 38.09253 | 7.52872 | 35958 ft | 393 kts | 306° |
| 2026-04-29 20:37 | 38.12707 | 7.47495 | 35966 ft | 393 kts | 306° |
| 2026-04-29 20:37 | 38.16163 | 7.42119 | 35954 ft | 393 kts | 306° |
| 2026-04-29 20:38 | 38.19619 | 7.36737 | 35965 ft | 393 kts | 306° |
| 2026-04-29 20:38 | 38.23044 | 7.31388 | 35954 ft | 393 kts | 306° |
| 2026-04-29 20:39 | 38.26515 | 7.25967 | 35955 ft | 393 kts | 306° |
| 2026-04-29 20:39 | 38.29936 | 7.20602 | 35960 ft | 393 kts | 306° |
| 2026-04-29 20:40 | 38.33374 | 7.15213 | 35959 ft | 392 kts | 306° |
| 2026-04-29 20:40 | 38.36820 | 7.09798 | 35961 ft | 392 kts | 306° |
| 2026-04-29 20:41 | 38.40253 | 7.04394 | 35962 ft | 392 kts | 305° |
| 2026-04-29 20:41 | 38.43679 | 6.98978 | 35955 ft | 392 kts | 305° |
| 2026-04-29 20:42 | 38.47118 | 6.93554 | 35961 ft | 393 kts | 306° |
| 2026-04-29 20:42 | 38.50549 | 6.88123 | 35955 ft | 393 kts | 306° |
| 2026-04-29 20:43 | 38.53980 | 6.82688 | 35946 ft | 394 kts | 306° |
| 2026-04-29 20:43 | 38.57329 | 6.77215 | 35952 ft | 391 kts | 298° |
| 2026-04-29 20:44 | 38.59461 | 6.70882 | 35955 ft | 388 kts | 289° |
| 2026-04-29 20:44 | 38.61406 | 6.64436 | 35955 ft | 388 kts | 289° |
| 2026-04-29 20:45 | 38.63327 | 6.57974 | 35955 ft | 388 kts | 289° |
| 2026-04-29 20:45 | 38.65257 | 6.51527 | 35956 ft | 388 kts | 289° |
| 2026-04-29 20:46 | 38.67182 | 6.45072 | 35969 ft | 388 kts | 289° |
| 2026-04-29 20:46 | 38.69092 | 6.38658 | 35969 ft | 387 kts | 289° |
| 2026-04-29 20:47 | 38.71008 | 6.32198 | 35968 ft | 387 kts | 289° |